createdAt,value
2018-09-29T00:00:52.241Z,3.17
2018-09-29T00:03:21.136Z,3.07
2018-09-29T00:05:49.980Z,4.73
2018-09-29T00:08:18.802Z,3.03
2018-09-29T00:10:47.736Z,6.20
2018-09-29T00:13:16.546Z,3.60
2018-09-29T00:15:45.409Z,3.70
2018-09-29T00:18:14.213Z,5.07
2018-09-29T00:20:43.088Z,5.40
2018-09-29T00:23:11.913Z,8.80
2018-09-29T00:25:40.758Z,8.20
2018-09-29T00:28:09.579Z,10.87
2018-09-29T00:30:38.471Z,5.73
2018-09-29T00:33:07.326Z,6.77
2018-09-29T00:35:36.175Z,6.03
2018-09-29T00:38:05.007Z,5.40
2018-09-29T00:40:33.912Z,6.80
2018-09-29T00:43:02.789Z,5.90
2018-09-29T00:45:31.629Z,10.27
2018-09-29T00:48:00.497Z,6.00
2018-09-29T00:50:29.394Z,4.40
2018-09-29T00:52:58.180Z,5.80
2018-09-29T00:55:27.065Z,5.27
2018-09-29T00:57:55.926Z,10.30
2018-09-29T01:00:24.893Z,4.43
2018-09-29T01:02:53.714Z,4.93
2018-09-29T01:05:22.625Z,6.90
2018-09-29T01:07:51.519Z,6.43
2018-09-29T01:10:20.352Z,6.47
2018-09-29T01:12:49.197Z,7.47
2018-09-29T01:15:18.067Z,5.27
2018-09-29T01:17:46.871Z,7.77
2018-09-29T01:20:15.682Z,11.70
2018-09-29T01:22:44.496Z,5.27
2018-09-29T01:25:13.388Z,5.37
2018-09-29T01:27:42.199Z,5.83
2018-09-29T01:30:11.120Z,8.50
2018-09-29T01:32:39.949Z,8.17
2018-09-29T01:35:08.797Z,4.97
2018-09-29T01:37:37.590Z,7.27
2018-09-29T01:40:06.534Z,7.93
2018-09-29T01:42:35.348Z,4.77
2018-09-29T01:45:04.281Z,4.70
2018-09-29T01:47:33.066Z,5.37
2018-09-29T01:50:01.899Z,7.57
2018-09-29T01:52:30.744Z,2.33
2018-09-29T01:54:59.695Z,6.77
2018-09-29T01:57:28.605Z,7.73
2018-09-29T01:59:57.421Z,7.37
2018-09-29T02:02:26.290Z,5.90
2018-09-29T02:04:55.302Z,4.30
2018-09-29T02:07:24.238Z,4.57
2018-09-29T02:09:53.130Z,3.67
2018-09-29T02:12:22.050Z,10.47
2018-09-29T02:14:50.908Z,5.13
2018-09-29T02:17:20.699Z,2.43
2018-09-29T02:19:49.506Z,10.17
2018-09-29T02:22:18.429Z,3.73
2018-09-29T02:24:47.298Z,5.90
2018-09-29T02:27:16.180Z,3.83
2018-09-29T02:29:45.012Z,7.43
2018-09-29T02:32:13.939Z,3.50
2018-09-29T02:34:42.764Z,5.83
2018-09-29T02:37:11.593Z,1.63
2018-09-29T02:39:40.460Z,4.07
2018-09-29T02:42:09.318Z,4.53
2018-09-29T02:44:38.217Z,7.03
2018-09-29T02:47:07.074Z,5.57
2018-09-29T02:49:35.936Z,8.17
2018-09-29T02:52:05.299Z,3.40
2018-09-29T02:54:34.163Z,7.63
2018-09-29T02:57:02.974Z,5.67
2018-09-29T02:59:31.838Z,5.80
2018-09-29T03:02:00.727Z,7.00
2018-09-29T03:04:29.636Z,5.93
2018-09-29T03:06:58.594Z,4.70
2018-09-29T03:09:27.474Z,7.10
2018-09-29T03:11:56.358Z,7.13
2018-09-29T03:14:25.196Z,7.67
2018-09-29T03:16:54.025Z,11.93
2018-09-29T03:19:23.021Z,4.93
2018-09-29T03:21:51.889Z,8.87
2018-09-29T03:24:20.788Z,6.13
2018-09-29T03:26:49.675Z,7.93
2018-09-29T03:29:18.568Z,3.03
2018-09-29T03:31:47.491Z,14.40
2018-09-29T03:34:16.362Z,6.60
2018-09-29T03:36:45.193Z,4.10
2018-09-29T03:39:14.068Z,6.43
2018-09-29T03:41:42.949Z,9.53
2018-09-29T03:44:11.850Z,5.47
2018-09-29T03:46:40.717Z,8.50
2018-09-29T03:49:09.604Z,5.50
2018-09-29T03:51:38.485Z,5.00
2018-09-29T03:54:07.274Z,8.13
2018-09-29T03:56:36.095Z,2.43
2018-09-29T03:59:04.974Z,6.03
2018-09-29T04:01:33.755Z,5.47
2018-09-29T04:04:02.549Z,3.87
2018-09-29T04:06:31.414Z,5.03
2018-09-29T04:09:00.252Z,4.43
2018-09-29T04:11:29.122Z,5.70
2018-09-29T04:13:58.023Z,5.50
2018-09-29T04:16:26.925Z,6.30
2018-09-29T04:18:55.781Z,4.73
2018-09-29T04:21:24.619Z,6.17
2018-09-29T04:23:53.401Z,6.00
2018-09-29T04:26:22.247Z,5.80
2018-09-29T04:28:51.064Z,12.50
2018-09-29T04:31:20.071Z,15.17
2018-09-29T04:33:48.895Z,15.50
2018-09-29T04:36:17.680Z,18.80
2018-09-29T04:38:46.561Z,27.80
2018-09-29T04:41:15.426Z,23.30
2018-09-29T04:43:44.257Z,26.53
2018-09-29T04:46:13.073Z,22.43
2018-09-29T04:48:41.907Z,28.73
2018-09-29T04:51:10.743Z,24.20
2018-09-29T04:53:39.622Z,27.60
2018-09-29T04:56:08.440Z,19.10
2018-09-29T04:58:37.362Z,21.13
2018-09-29T05:01:06.368Z,22.33
2018-09-29T05:03:35.212Z,13.80
2018-09-29T05:06:04.079Z,13.13
2018-09-29T05:08:32.972Z,13.40
2018-09-29T05:11:02.256Z,9.43
2018-09-29T05:13:31.185Z,8.23
2018-09-29T05:16:00.103Z,6.33
2018-09-29T05:18:28.974Z,7.83
2018-09-29T05:20:58.037Z,7.53
2018-09-29T05:23:26.914Z,4.87
2018-09-29T05:25:55.833Z,5.77
2018-09-29T05:28:25.036Z,9.83
2018-09-29T05:30:54.076Z,8.80
2018-09-29T05:33:23.038Z,8.03
2018-09-29T05:35:51.860Z,5.70
2018-09-29T05:38:20.874Z,9.23
2018-09-29T05:40:49.799Z,8.87
2018-09-29T05:43:18.774Z,6.67
2018-09-29T05:45:47.934Z,8.13
2018-09-29T05:48:16.898Z,8.33
2018-09-29T05:50:45.664Z,5.10
2018-09-29T05:53:14.559Z,7.23
2018-09-29T05:55:43.370Z,6.30
2018-09-29T05:58:12.226Z,7.30
2018-09-29T06:00:41.152Z,8.13
2018-09-29T06:03:10.051Z,6.63
2018-09-29T06:05:39.235Z,7.80
2018-09-29T06:08:08.307Z,4.77
2018-09-29T06:10:37.360Z,8.93
2018-09-29T06:13:06.368Z,10.20
2018-09-29T06:15:35.310Z,10.80
2018-09-29T06:18:04.306Z,6.67
2018-09-29T06:20:33.356Z,15.33
2018-09-29T06:23:02.616Z,5.80
2018-09-29T06:25:31.820Z,12.73
2018-09-29T06:28:00.841Z,9.33
2018-09-29T06:30:29.883Z,7.10
2018-09-29T06:32:58.875Z,14.70
2018-09-29T06:35:27.818Z,9.83
2018-09-29T06:37:56.839Z,8.87
2018-09-29T06:40:25.900Z,8.27
2018-09-29T06:42:54.842Z,8.00
2018-09-29T06:45:23.840Z,14.20
2018-09-29T06:47:52.769Z,6.60
2018-09-29T06:50:21.649Z,7.90
2018-09-29T06:52:50.532Z,9.80
2018-09-29T06:55:19.495Z,8.47
2018-09-29T06:57:48.518Z,10.73
2018-09-29T07:00:17.587Z,5.77
2018-09-29T07:02:46.547Z,5.80
2018-09-29T07:05:15.398Z,9.70
2018-09-29T07:07:44.360Z,15.63
2018-09-29T07:10:13.381Z,7.57
2018-09-29T07:12:42.212Z,8.20
2018-09-29T07:15:11.168Z,4.10
2018-09-29T07:17:40.077Z,7.37
2018-09-29T07:20:08.913Z,10.57
2018-09-29T07:22:37.825Z,10.53
2018-09-29T07:25:06.696Z,5.03
2018-09-29T07:27:35.586Z,5.90
2018-09-29T07:30:04.490Z,8.10
2018-09-29T07:32:33.402Z,6.17
2018-09-29T07:35:02.304Z,8.37
2018-09-29T07:37:34.797Z,8.67
2018-09-29T07:40:03.664Z,9.77
2018-09-29T07:42:32.577Z,7.43
2018-09-29T07:45:01.411Z,10.57
2018-09-29T07:47:30.290Z,7.57
2018-09-29T07:49:59.162Z,8.33
2018-09-29T07:52:28.001Z,4.37
2018-09-29T07:54:56.920Z,9.77
2018-09-29T07:57:25.756Z,5.73
2018-09-29T07:59:54.644Z,6.87
2018-09-29T08:02:23.538Z,7.83
2018-09-29T08:04:52.398Z,5.93
2018-09-29T08:07:21.257Z,6.87
2018-09-29T08:09:50.204Z,5.60
2018-09-29T08:12:19.126Z,4.13
2018-09-29T08:14:47.960Z,6.83
2018-09-29T08:17:16.792Z,3.90
2018-09-29T08:19:45.675Z,6.97
2018-09-29T08:22:14.668Z,6.73
2018-09-29T08:24:43.480Z,3.50
2018-09-29T08:27:12.354Z,7.77
2018-09-29T08:29:41.148Z,2.50
2018-09-29T08:32:10.084Z,6.40
2018-09-29T08:34:38.987Z,9.03
2018-09-29T08:37:07.874Z,5.40
2018-09-29T08:39:46.462Z,4.77
2018-09-29T08:42:15.429Z,10.20
2018-09-29T08:44:44.300Z,3.33
2018-09-29T08:47:13.260Z,4.97
2018-09-29T08:49:42.178Z,3.40
2018-09-29T08:52:10.993Z,5.37
2018-09-29T08:54:39.870Z,5.70
2018-09-29T08:57:08.771Z,2.63
2018-09-29T08:59:37.649Z,6.73
2018-09-29T09:02:06.703Z,3.77
2018-09-29T09:04:35.589Z,2.50
2018-09-29T09:07:04.925Z,2.80
2018-09-29T09:09:33.840Z,3.97
2018-09-29T09:12:02.779Z,4.90
2018-09-29T09:14:31.696Z,5.73
2018-09-29T09:17:00.600Z,8.60
2018-09-29T09:19:29.529Z,6.37
2018-09-29T09:21:58.415Z,4.20
2018-09-29T09:24:27.321Z,3.23
2018-09-29T09:26:56.196Z,2.77
2018-09-29T09:29:25.048Z,3.73
2018-09-29T09:31:53.957Z,4.80
2018-09-29T09:34:22.872Z,4.13
2018-09-29T09:36:51.776Z,4.20
2018-09-29T09:39:20.678Z,3.87
2018-09-29T09:41:49.591Z,6.53
2018-09-29T09:44:18.443Z,5.50
2018-09-29T09:46:47.371Z,5.80
2018-09-29T09:49:16.256Z,6.03
2018-09-29T09:51:45.382Z,3.60
2018-09-29T09:54:14.331Z,3.43
2018-09-29T09:56:43.205Z,3.57
2018-09-29T09:59:12.126Z,5.07
2018-09-29T10:01:46.341Z,2.93
2018-09-29T10:04:15.321Z,4.83
2018-09-29T10:06:44.246Z,2.73
2018-09-29T10:09:14.071Z,4.93
2018-09-29T10:11:44.170Z,1.67
2018-09-29T10:14:13.042Z,1.87
2018-09-29T10:16:42.264Z,5.73
2018-09-29T10:19:11.240Z,9.60
2018-09-29T10:21:40.135Z,2.63
2018-09-29T10:24:09.079Z,5.43
2018-09-29T10:26:37.977Z,5.03
2018-09-29T10:29:07.001Z,4.67
2018-09-29T10:31:39.381Z,3.40
2018-09-29T10:34:09.141Z,3.53
2018-09-29T10:36:42.286Z,3.00
2018-09-29T10:39:15.251Z,7.00
2018-09-29T10:41:48.782Z,4.17
2018-09-29T10:44:30.737Z,6.07
2018-09-29T10:47:10.699Z,6.97
2018-09-29T10:49:54.310Z,2.10
2018-09-29T10:55:16.566Z,4.77
2018-09-29T10:57:45.717Z,3.43
2018-09-29T11:00:14.682Z,3.63
2018-09-29T11:02:44.175Z,5.50
2018-09-29T11:05:15.361Z,4.63
2018-09-29T11:07:51.337Z,2.50
2018-09-29T11:10:29.194Z,6.67
2018-09-29T11:13:01.912Z,1.80
2018-09-29T11:15:35.176Z,5.30
2018-09-29T11:18:05.908Z,6.77
2018-09-29T11:20:35.254Z,2.20
2018-09-29T11:23:04.231Z,6.30
2018-09-29T11:25:37.484Z,1.77
2018-09-29T11:28:08.522Z,4.57
2018-09-29T11:30:37.586Z,2.63
2018-09-29T11:33:12.696Z,2.23
2018-09-29T11:35:44.222Z,2.70
2018-09-29T11:38:14.725Z,3.13
2018-09-29T11:40:47.424Z,5.03
2018-09-29T11:43:16.990Z,4.90
2018-09-29T11:45:46.074Z,4.97
2018-09-29T11:48:20.341Z,3.00
2018-09-29T11:50:49.579Z,4.37
2018-09-29T11:53:20.572Z,6.30
2018-09-29T11:55:49.505Z,4.97
2018-09-29T11:58:18.322Z,2.70
2018-09-29T12:00:47.227Z,2.57
2018-09-29T12:03:16.111Z,4.50
2018-09-29T12:05:45.130Z,4.77
2018-09-29T12:08:14.172Z,3.53
2018-09-29T12:10:43.034Z,4.70
2018-09-29T12:13:11.883Z,3.47
2018-09-29T12:15:40.750Z,6.73
2018-09-29T12:18:09.602Z,8.30
2018-09-29T12:20:38.483Z,4.40
2018-09-29T12:23:07.450Z,3.93
2018-09-29T12:25:36.417Z,3.57
2018-09-29T12:28:05.334Z,2.90
2018-09-29T12:30:34.218Z,5.70
2018-09-29T12:33:03.113Z,3.53
2018-09-29T12:35:31.987Z,3.90
2018-09-29T12:38:01.029Z,3.23
2018-09-29T12:40:29.996Z,2.83
2018-09-29T12:42:58.929Z,4.17
2018-09-29T12:45:27.795Z,4.23
2018-09-29T12:47:56.736Z,2.63
2018-09-29T12:50:25.653Z,3.20
2018-09-29T12:52:54.516Z,4.63
2018-09-29T12:55:23.405Z,3.40
2018-09-29T12:57:52.490Z,2.50
2018-09-29T13:00:21.349Z,0.83
2018-09-29T13:02:50.175Z,2.57
2018-09-29T13:05:19.109Z,2.87
2018-09-29T13:07:48.038Z,2.43
2018-09-29T13:10:16.905Z,2.40
2018-09-29T13:12:45.796Z,4.30
2018-09-29T13:15:14.710Z,3.07
2018-09-29T13:17:43.585Z,2.27
2018-09-29T13:20:12.505Z,3.03
2018-09-29T13:22:41.439Z,2.60
2018-09-29T13:25:10.296Z,1.97
2018-09-29T13:27:39.198Z,4.10
2018-09-29T13:30:08.155Z,5.03
2018-09-29T13:32:37.033Z,3.43
2018-09-29T13:35:06.114Z,5.63
2018-09-29T13:37:35.055Z,5.03
2018-09-29T13:40:03.966Z,2.90
2018-09-29T13:42:32.969Z,3.90
2018-09-29T13:45:01.908Z,1.50
2018-09-29T13:47:30.852Z,0.87
2018-09-29T13:49:59.859Z,2.37
2018-09-29T13:52:28.730Z,3.17
2018-09-29T13:54:57.674Z,2.10
2018-09-29T13:57:26.511Z,5.13
2018-09-29T13:59:55.465Z,2.83
2018-09-29T14:02:24.343Z,1.70
2018-09-29T14:04:53.232Z,1.77
2018-09-29T14:07:22.155Z,7.07
2018-09-29T14:09:50.997Z,3.63
2018-09-29T14:12:19.904Z,5.73
2018-09-29T14:14:48.774Z,4.00
2018-09-29T14:17:17.887Z,2.10
2018-09-29T14:19:46.753Z,4.47
2018-09-29T14:22:15.719Z,5.53
2018-09-29T14:24:44.685Z,3.27
2018-09-29T14:27:21.892Z,5.27
2018-09-29T14:29:55.662Z,3.63
2018-09-29T14:32:27.488Z,3.67
2018-09-29T14:35:01.995Z,4.40
2018-09-29T14:37:32.209Z,5.43
2018-09-29T14:40:06.950Z,2.77
2018-09-29T14:42:39.989Z,3.03
2018-09-29T14:45:10.017Z,1.90
2018-09-29T14:47:42.584Z,0.97
2018-09-29T14:50:13.028Z,3.00
2018-09-29T14:52:46.937Z,5.00
2018-09-29T14:55:16.046Z,4.03
2018-09-29T14:57:50.309Z,5.43
2018-09-29T15:00:28.188Z,1.37
2018-09-29T15:03:01.490Z,3.87
2018-09-29T15:05:40.856Z,2.73
2018-09-29T15:08:16.360Z,6.00
2018-09-29T15:10:52.295Z,4.43
2018-09-29T15:13:27.740Z,3.00
2018-09-29T15:16:05.578Z,2.67
2018-09-29T15:18:53.491Z,4.47
2018-09-29T15:21:35.937Z,1.87
2018-09-29T15:27:03.179Z,3.47
2018-09-29T15:29:32.500Z,3.97
2018-09-29T15:32:02.273Z,2.30
2018-09-29T15:34:31.118Z,2.97
2018-09-29T15:36:59.949Z,5.33
2018-09-29T15:39:28.948Z,2.37
2018-09-29T15:41:58.901Z,2.90
2018-09-29T15:44:27.947Z,2.17
2018-09-29T15:46:56.851Z,2.87
2018-09-29T15:49:37.882Z,1.67
2018-09-29T15:52:09.998Z,1.80
2018-09-29T15:54:42.171Z,5.97
2018-09-29T15:57:34.792Z,2.17
2018-09-29T16:00:15.302Z,2.83
2018-09-29T16:02:44.837Z,4.53
2018-09-29T16:05:13.973Z,3.17
2018-09-29T16:07:42.837Z,1.97
2018-09-29T16:10:11.726Z,7.97
2018-09-29T16:12:40.569Z,10.20
2018-09-29T16:15:09.570Z,23.10
2018-09-29T16:17:38.458Z,14.53
2018-09-29T16:20:07.247Z,44.80
2018-09-29T16:22:36.057Z,21.67
2018-09-29T16:25:04.974Z,12.73
2018-09-29T16:27:33.711Z,11.37
2018-09-29T16:30:03.620Z,8.20
2018-09-29T16:32:32.382Z,21.57
2018-09-29T16:35:01.408Z,32.20
2018-09-29T16:37:30.391Z,27.37
2018-09-29T16:39:59.341Z,15.77
2018-09-29T16:42:28.140Z,12.10
2018-09-29T16:44:56.928Z,8.97
2018-09-29T16:47:25.812Z,8.93
2018-09-29T16:49:54.488Z,6.27
2018-09-29T16:52:23.229Z,10.83
2018-09-29T16:54:55.719Z,7.43
2018-09-29T16:57:28.460Z,3.27
2018-09-29T17:00:00.974Z,3.27
2018-09-29T17:02:36.399Z,3.50
2018-09-29T17:05:10.177Z,2.30
2018-09-29T17:07:44.018Z,3.27
2018-09-29T17:10:17.297Z,2.93
2018-09-29T17:12:50.088Z,2.30
2018-09-29T17:15:24.296Z,3.13
2018-09-29T17:17:57.897Z,4.60
2018-09-29T17:20:32.835Z,3.40
2018-09-29T17:23:05.993Z,7.97
2018-09-29T17:25:46.469Z,10.57
2018-09-29T17:28:19.279Z,6.63
2018-09-29T17:30:52.593Z,5.33
2018-09-29T17:33:26.499Z,5.83
2018-09-29T17:36:01.977Z,9.23
2018-09-29T17:38:36.355Z,5.77
2018-09-29T17:41:05.336Z,5.47
2018-09-29T17:43:34.274Z,12.20
2018-09-29T17:46:03.130Z,7.23
2018-09-29T17:48:32.101Z,7.63
2018-09-29T17:51:01.176Z,7.77
2018-09-29T17:53:30.235Z,9.63
2018-09-29T17:55:59.538Z,8.77
2018-09-29T17:58:29.960Z,17.07
2018-09-29T18:00:59.009Z,16.67
2018-09-29T18:03:28.421Z,19.90
2018-09-29T18:05:57.330Z,20.60
2018-09-29T18:08:26.466Z,18.33
2018-09-29T18:10:55.475Z,18.47
2018-09-29T18:13:24.591Z,18.67
2018-09-29T18:15:54.021Z,17.43
2018-09-29T18:18:23.010Z,53.40
2018-09-29T18:20:51.970Z,64.23
2018-09-29T18:23:21.113Z,53.80
2018-09-29T18:25:50.182Z,37.77
2018-09-29T18:28:19.288Z,35.93
2018-09-29T18:30:48.390Z,34.37
2018-09-29T18:33:17.410Z,22.97
2018-09-29T18:35:46.963Z,20.93
2018-09-29T18:38:16.009Z,27.27
2018-09-29T18:40:44.983Z,20.97
2018-09-29T18:43:14.521Z,24.53
2018-09-29T18:45:43.382Z,20.00
2018-09-29T18:48:12.476Z,18.33
2018-09-29T18:50:41.611Z,20.67
2018-09-29T19:10:14.472Z,29.33
2018-09-29T19:12:43.604Z,43.10
2018-09-29T19:15:12.564Z,43.13
2018-09-29T19:17:43.274Z,66.60
2018-09-29T19:20:12.915Z,60.33
2018-09-29T19:22:44.372Z,57.10
2018-09-29T19:25:13.622Z,58.60
2018-09-29T19:27:42.898Z,47.83
2018-09-29T19:30:13.510Z,44.07
2018-09-29T19:32:42.630Z,44.00
2018-09-29T19:35:12.561Z,51.13
2018-09-29T19:37:42.592Z,55.43
2018-09-29T19:40:11.684Z,53.87
2018-09-29T19:42:40.846Z,52.70
2018-09-29T19:45:12.985Z,54.93
2018-09-29T19:47:43.675Z,58.87
2018-09-29T19:50:12.880Z,52.23
2018-09-29T19:52:42.554Z,52.13
2018-09-29T19:55:12.169Z,49.23
2018-09-29T19:57:42.031Z,49.53
2018-09-29T20:00:11.473Z,49.03
2018-09-29T20:02:40.443Z,45.60
2018-09-29T20:05:09.389Z,36.17
2018-09-29T20:07:38.372Z,36.90
2018-09-29T20:10:07.303Z,35.37
2018-09-29T20:12:36.268Z,31.50
2018-09-29T20:15:05.203Z,30.83
2018-09-29T20:17:34.461Z,35.47
2018-09-29T20:20:03.452Z,28.60
2018-09-29T20:22:32.462Z,30.40
2018-09-29T20:25:01.589Z,31.73
2018-09-29T20:27:30.609Z,30.23
2018-09-29T20:30:00.120Z,28.20
2018-09-29T20:32:29.113Z,32.00
2018-09-29T20:34:58.414Z,34.73
2018-09-29T20:37:27.353Z,31.90
2018-09-29T20:39:56.292Z,34.67
2018-09-29T20:42:25.375Z,33.63
2018-09-29T20:44:54.297Z,34.00
2018-09-29T20:47:23.241Z,43.37
2018-09-29T20:49:52.275Z,36.27
2018-09-29T20:52:21.326Z,40.57
2018-09-29T20:54:50.456Z,48.50
2018-09-29T20:57:19.365Z,40.07
2018-09-29T20:59:48.610Z,46.57
2018-09-29T21:02:17.634Z,44.83
2018-09-29T21:04:46.600Z,41.27
2018-09-29T21:07:15.653Z,46.30
2018-09-29T21:09:44.658Z,52.83
2018-09-29T21:12:13.864Z,50.20
2018-09-29T21:14:42.810Z,53.07
2018-09-29T21:17:11.686Z,46.87
2018-09-29T21:19:40.934Z,46.80
2018-09-29T21:22:09.955Z,45.03
2018-09-29T21:24:39.102Z,52.40
2018-09-29T21:27:08.139Z,53.73
2018-09-29T21:29:37.138Z,56.50
2018-09-29T21:32:06.366Z,52.37
2018-09-29T21:34:35.277Z,57.10
2018-09-29T21:37:04.295Z,52.37
2018-09-29T21:40:57.901Z,54.83
2018-09-29T21:43:27.049Z,53.73
2018-09-29T21:45:56.379Z,47.67
2018-09-29T21:48:25.726Z,53.33
2018-09-29T21:50:54.750Z,49.33
2018-09-29T21:53:23.848Z,51.07
2018-09-29T21:55:54.004Z,48.50
2018-09-29T21:58:22.966Z,45.57
2018-09-29T22:00:52.011Z,39.30
2018-09-29T22:03:20.853Z,43.80
2018-09-29T22:05:49.718Z,46.13
2018-09-29T22:08:18.669Z,42.93
2018-09-29T22:10:47.637Z,47.70
2018-09-29T22:13:16.524Z,36.87
2018-09-29T22:15:45.464Z,45.57
2018-09-29T22:18:14.334Z,43.40
2018-09-29T22:20:43.270Z,45.43
2018-09-29T22:23:12.218Z,42.63
2018-09-29T22:25:41.254Z,49.60
2018-09-29T22:28:10.095Z,45.27
2018-09-29T22:30:38.993Z,44.50
2018-09-29T22:33:08.020Z,52.23
2018-09-29T22:35:36.872Z,51.63
2018-09-29T22:38:07.066Z,54.37
2018-09-29T22:40:35.924Z,48.17
2018-09-29T22:43:04.804Z,44.53
2018-09-29T22:45:33.698Z,41.13
2018-09-29T22:48:02.611Z,43.70
2018-09-29T22:50:31.552Z,39.13
2018-09-29T22:53:00.596Z,37.53
2018-09-29T22:55:29.440Z,40.93
2018-09-29T22:57:58.292Z,41.93
2018-09-29T23:00:27.147Z,41.43
2018-09-29T23:02:55.964Z,40.13
2018-09-29T23:05:24.892Z,41.57
2018-09-29T23:07:53.721Z,45.73
2018-09-29T23:10:22.604Z,44.67
2018-09-29T23:12:51.423Z,43.20
2018-09-29T23:15:20.327Z,48.30
2018-09-29T23:17:49.167Z,48.73
2018-09-29T23:20:18.118Z,44.17
2018-09-29T23:22:46.998Z,50.73
2018-09-29T23:25:15.940Z,44.17
2018-09-29T23:27:44.773Z,45.07
2018-09-29T23:30:13.689Z,47.60
2018-09-29T23:32:42.557Z,50.03
2018-09-29T23:35:11.440Z,39.73
2018-09-29T23:37:40.322Z,45.67
2018-09-29T23:40:09.205Z,42.63
2018-09-29T23:42:38.045Z,42.50
2018-09-29T23:45:07.000Z,44.87
2018-09-29T23:47:35.848Z,36.07
2018-09-29T23:50:04.808Z,44.57
2018-09-29T23:52:33.645Z,40.53
2018-09-29T23:55:02.534Z,38.77
2018-09-29T23:57:31.411Z,40.37
